sensor_id;sensor_type;location;lat;lon;timestamp;P1;durP1;ratioP1;P2;durP2;ratioP2
69150;SDS011;56257;52.196;13.870;2022-07-10T00:01:49;7.30;;;3.05;;
69150;SDS011;56257;52.196;13.870;2022-07-10T00:04:15;6.70;;;3.10;;
69150;SDS011;56257;52.196;13.870;2022-07-10T00:06:42;6.90;;;2.80;;
69150;SDS011;56257;52.196;13.870;2022-07-10T00:09:13;7.13;;;3.15;;
69150;SDS011;56257;52.196;13.870;2022-07-10T00:11:40;6.80;;;3.55;;
69150;SDS011;56257;52.196;13.870;2022-07-10T00:14:08;6.55;;;2.90;;
69150;SDS011;56257;52.196;13.870;2022-07-10T00:16:34;7.10;;;3.33;;
69150;SDS011;56257;52.196;13.870;2022-07-10T00:19:02;10.33;;;5.67;;
69150;SDS011;56257;52.196;13.870;2022-07-10T00:21:29;8.02;;;5.10;;
69150;SDS011;56257;52.196;13.870;2022-07-10T00:23:55;9.48;;;7.38;;
69150;SDS011;56257;52.196;13.870;2022-07-10T00:26:22;11.68;;;5.95;;
69150;SDS011;56257;52.196;13.870;2022-07-10T00:28:49;13.43;;;9.23;;
69150;SDS011;56257;52.196;13.870;2022-07-10T00:31:15;13.17;;;9.97;;
69150;SDS011;56257;52.196;13.870;2022-07-10T00:33:43;11.45;;;7.13;;
69150;SDS011;56257;52.196;13.870;2022-07-10T00:36:09;15.88;;;11.20;;
69150;SDS011;56257;52.196;13.870;2022-07-10T00:38:36;12.77;;;8.80;;
69150;SDS011;56257;52.196;13.870;2022-07-10T00:41:03;11.93;;;9.23;;
69150;SDS011;56257;52.196;13.870;2022-07-10T00:43:30;15.53;;;11.77;;
69150;SDS011;56257;52.196;13.870;2022-07-10T00:45:56;12.18;;;9.60;;
69150;SDS011;56257;52.196;13.870;2022-07-10T00:48:23;11.77;;;8.60;;
69150;SDS011;56257;52.196;13.870;2022-07-10T00:50:50;11.35;;;7.65;;
69150;SDS011;56257;52.196;13.870;2022-07-10T00:53:17;15.57;;;10.00;;
69150;SDS011;56257;52.196;13.870;2022-07-10T00:55:44;11.27;;;7.23;;
69150;SDS011;56257;52.196;13.870;2022-07-10T00:58:11;8.45;;;5.97;;
69150;SDS011;56257;52.196;13.870;2022-07-10T01:00:39;8.73;;;5.43;;
69150;SDS011;56257;52.196;13.870;2022-07-10T01:03:05;9.32;;;5.25;;
69150;SDS011;56257;52.196;13.870;2022-07-10T01:05:32;10.65;;;5.30;;
69150;SDS011;56257;52.196;13.870;2022-07-10T01:07:59;9.70;;;4.90;;
69150;SDS011;56257;52.196;13.870;2022-07-10T01:10:25;9.00;;;4.60;;
69150;SDS011;56257;52.196;13.870;2022-07-10T01:12:52;7.18;;;4.53;;
69150;SDS011;56257;52.196;13.870;2022-07-10T01:15:20;6.88;;;3.70;;
69150;SDS011;56257;52.196;13.870;2022-07-10T01:17:46;10.27;;;4.53;;
69150;SDS011;56257;52.196;13.870;2022-07-10T01:20:15;7.40;;;4.03;;
69150;SDS011;56257;52.196;13.870;2022-07-10T01:22:42;10.00;;;5.18;;
69150;SDS011;56257;52.196;13.870;2022-07-10T01:25:08;7.97;;;4.50;;
69150;SDS011;56257;52.196;13.870;2022-07-10T01:27:37;11.50;;;6.10;;
69150;SDS011;56257;52.196;13.870;2022-07-10T01:30:04;9.48;;;4.57;;
69150;SDS011;56257;52.196;13.870;2022-07-10T01:32:38;7.60;;;3.67;;
69150;SDS011;56257;52.196;13.870;2022-07-10T01:35:05;7.18;;;3.60;;
69150;SDS011;56257;52.196;13.870;2022-07-10T01:37:33;5.28;;;2.90;;
69150;SDS011;56257;52.196;13.870;2022-07-10T01:40:00;6.38;;;3.15;;
69150;SDS011;56257;52.196;13.870;2022-07-10T01:42:26;9.07;;;3.10;;
69150;SDS011;56257;52.196;13.870;2022-07-10T01:44:53;8.47;;;5.20;;
69150;SDS011;56257;52.196;13.870;2022-07-10T01:47:21;8.48;;;3.95;;
69150;SDS011;56257;52.196;13.870;2022-07-10T01:49:50;7.72;;;4.10;;
69150;SDS011;56257;52.196;13.870;2022-07-10T01:52:22;8.98;;;5.20;;
69150;SDS011;56257;52.196;13.870;2022-07-10T01:54:48;7.90;;;4.88;;
69150;SDS011;56257;52.196;13.870;2022-07-10T01:57:15;6.97;;;4.03;;
69150;SDS011;56257;52.196;13.870;2022-07-10T01:59:42;8.00;;;4.43;;
69150;SDS011;56257;52.196;13.870;2022-07-10T02:02:09;12.00;;;5.20;;
69150;SDS011;56257;52.196;13.870;2022-07-10T02:04:36;9.55;;;4.15;;
69150;SDS011;56257;52.196;13.870;2022-07-10T02:07:09;11.25;;;5.60;;
69150;SDS011;56257;52.196;13.870;2022-07-10T02:09:37;7.70;;;4.37;;
69150;SDS011;56257;52.196;13.870;2022-07-10T02:12:05;8.82;;;4.18;;
69150;SDS011;56257;52.196;13.870;2022-07-10T02:14:33;10.30;;;4.82;;
69150;SDS011;56257;52.196;13.870;2022-07-10T02:16:59;6.90;;;3.45;;
69150;SDS011;56257;52.196;13.870;2022-07-10T02:19:26;7.97;;;3.42;;
69150;SDS011;56257;52.196;13.870;2022-07-10T02:21:53;9.63;;;3.53;;
69150;SDS011;56257;52.196;13.870;2022-07-10T02:24:20;8.88;;;3.97;;
69150;SDS011;56257;52.196;13.870;2022-07-10T02:26:46;6.03;;;2.90;;
69150;SDS011;56257;52.196;13.870;2022-07-10T02:29:13;8.18;;;3.45;;
69150;SDS011;56257;52.196;13.870;2022-07-10T02:31:40;8.52;;;3.58;;
69150;SDS011;56257;52.196;13.870;2022-07-10T02:34:07;9.07;;;3.73;;
69150;SDS011;56257;52.196;13.870;2022-07-10T02:36:35;7.70;;;3.22;;
69150;SDS011;56257;52.196;13.870;2022-07-10T02:39:05;7.10;;;3.00;;
69150;SDS011;56257;52.196;13.870;2022-07-10T02:41:32;5.85;;;2.60;;
69150;SDS011;56257;52.196;13.870;2022-07-10T02:43:59;6.32;;;2.70;;
69150;SDS011;56257;52.196;13.870;2022-07-10T02:46:25;7.07;;;3.10;;
69150;SDS011;56257;52.196;13.870;2022-07-10T02:48:52;7.18;;;3.88;;
69150;SDS011;56257;52.196;13.870;2022-07-10T02:51:19;8.13;;;3.53;;
69150;SDS011;56257;52.196;13.870;2022-07-10T02:53:46;8.63;;;4.63;;
69150;SDS011;56257;52.196;13.870;2022-07-10T02:56:12;7.88;;;4.13;;
69150;SDS011;56257;52.196;13.870;2022-07-10T02:58:39;23.57;;;12.93;;
69150;SDS011;56257;52.196;13.870;2022-07-10T03:01:06;12.82;;;7.22;;
69150;SDS011;56257;52.196;13.870;2022-07-10T03:03:34;11.65;;;7.00;;
69150;SDS011;56257;52.196;13.870;2022-07-10T03:06:00;13.38;;;5.00;;
69150;SDS011;56257;52.196;13.870;2022-07-10T03:08:27;10.90;;;6.43;;
69150;SDS011;56257;52.196;13.870;2022-07-10T03:10:54;9.67;;;5.40;;
69150;SDS011;56257;52.196;13.870;2022-07-10T03:13:20;10.32;;;5.55;;
69150;SDS011;56257;52.196;13.870;2022-07-10T03:15:47;9.25;;;3.65;;
69150;SDS011;56257;52.196;13.870;2022-07-10T03:18:14;7.22;;;3.05;;
69150;SDS011;56257;52.196;13.870;2022-07-10T03:20:40;8.40;;;4.32;;
69150;SDS011;56257;52.196;13.870;2022-07-10T03:23:07;8.13;;;3.43;;
69150;SDS011;56257;52.196;13.870;2022-07-10T03:25:34;7.55;;;3.55;;
69150;SDS011;56257;52.196;13.870;2022-07-10T03:28:00;7.10;;;2.60;;
69150;SDS011;56257;52.196;13.870;2022-07-10T03:30:27;7.68;;;2.40;;
69150;SDS011;56257;52.196;13.870;2022-07-10T03:32:54;5.63;;;2.20;;
69150;SDS011;56257;52.196;13.870;2022-07-10T03:35:20;5.67;;;2.30;;
69150;SDS011;56257;52.196;13.870;2022-07-10T03:37:47;6.53;;;2.58;;
69150;SDS011;56257;52.196;13.870;2022-07-10T03:40:13;9.45;;;4.05;;
69150;SDS011;56257;52.196;13.870;2022-07-10T03:42:40;7.60;;;3.40;;
69150;SDS011;56257;52.196;13.870;2022-07-10T03:45:07;7.28;;;3.55;;
69150;SDS011;56257;52.196;13.870;2022-07-10T03:47:34;7.23;;;2.80;;
69150;SDS011;56257;52.196;13.870;2022-07-10T03:50:00;6.93;;;2.47;;
69150;SDS011;56257;52.196;13.870;2022-07-10T03:52:28;5.68;;;2.13;;
69150;SDS011;56257;52.196;13.870;2022-07-10T03:54:55;4.85;;;1.58;;
69150;SDS011;56257;52.196;13.870;2022-07-10T03:57:21;7.03;;;2.17;;
69150;SDS011;56257;52.196;13.870;2022-07-10T04:00:07;6.07;;;1.60;;
69150;SDS011;56257;52.196;13.870;2022-07-10T04:02:34;4.30;;;1.13;;
69150;SDS011;56257;52.196;13.870;2022-07-10T04:05:01;4.15;;;1.33;;
69150;SDS011;56257;52.196;13.870;2022-07-10T04:07:27;4.28;;;0.93;;
69150;SDS011;56257;52.196;13.870;2022-07-10T04:09:54;6.57;;;1.35;;
69150;SDS011;56257;52.196;13.870;2022-07-10T04:12:21;5.10;;;1.00;;
69150;SDS011;56257;52.196;13.870;2022-07-10T04:14:48;5.18;;;0.95;;
69150;SDS011;56257;52.196;13.870;2022-07-10T04:17:17;4.63;;;0.75;;
69150;SDS011;56257;52.196;13.870;2022-07-10T04:19:44;4.47;;;0.85;;
69150;SDS011;56257;52.196;13.870;2022-07-10T04:22:12;4.25;;;0.98;;
69150;SDS011;56257;52.196;13.870;2022-07-10T04:24:39;3.53;;;0.60;;
69150;SDS011;56257;52.196;13.870;2022-07-10T04:27:05;3.00;;;0.65;;
69150;SDS011;56257;52.196;13.870;2022-07-10T04:29:33;5.45;;;1.15;;
69150;SDS011;56257;52.196;13.870;2022-07-10T04:31:59;3.60;;;0.90;;
69150;SDS011;56257;52.196;13.870;2022-07-10T04:34:26;3.30;;;0.93;;
69150;SDS011;56257;52.196;13.870;2022-07-10T04:36:53;3.70;;;0.70;;
69150;SDS011;56257;52.196;13.870;2022-07-10T04:39:19;5.32;;;0.95;;
69150;SDS011;56257;52.196;13.870;2022-07-10T04:41:46;4.32;;;0.75;;
69150;SDS011;56257;52.196;13.870;2022-07-10T04:44:13;7.03;;;1.35;;
69150;SDS011;56257;52.196;13.870;2022-07-10T04:46:39;4.75;;;0.80;;
69150;SDS011;56257;52.196;13.870;2022-07-10T04:49:06;3.90;;;0.77;;
69150;SDS011;56257;52.196;13.870;2022-07-10T04:51:33;4.63;;;0.80;;
69150;SDS011;56257;52.196;13.870;2022-07-10T04:53:59;5.25;;;0.70;;
69150;SDS011;56257;52.196;13.870;2022-07-10T04:56:26;3.22;;;0.60;;
69150;SDS011;56257;52.196;13.870;2022-07-10T04:58:53;3.90;;;0.70;;
69150;SDS011;56257;52.196;13.870;2022-07-10T05:01:19;2.83;;;0.57;;
69150;SDS011;56257;52.196;13.870;2022-07-10T05:03:47;7.90;;;0.60;;
69150;SDS011;56257;52.196;13.870;2022-07-10T05:06:14;3.03;;;0.70;;
69150;SDS011;56257;52.196;13.870;2022-07-10T05:08:41;3.55;;;0.68;;
69150;SDS011;56257;52.196;13.870;2022-07-10T05:11:08;3.50;;;0.52;;
69150;SDS011;56257;52.196;13.870;2022-07-10T05:13:34;3.10;;;0.60;;
69150;SDS011;56257;52.196;13.870;2022-07-10T05:16:01;3.90;;;0.63;;
69150;SDS011;56257;52.196;13.870;2022-07-10T05:18:28;4.65;;;1.05;;
69150;SDS011;56257;52.196;13.870;2022-07-10T05:20:54;4.85;;;0.60;;
69150;SDS011;56257;52.196;13.870;2022-07-10T05:23:21;4.90;;;1.00;;
69150;SDS011;56257;52.196;13.870;2022-07-10T05:25:48;4.37;;;0.50;;
69150;SDS011;56257;52.196;13.870;2022-07-10T05:28:15;3.63;;;0.50;;
69150;SDS011;56257;52.196;13.870;2022-07-10T05:30:41;3.25;;;0.65;;
69150;SDS011;56257;52.196;13.870;2022-07-10T05:33:08;2.75;;;0.50;;
69150;SDS011;56257;52.196;13.870;2022-07-10T05:35:35;4.00;;;0.60;;
69150;SDS011;56257;52.196;13.870;2022-07-10T05:38:02;3.23;;;0.60;;
69150;SDS011;56257;52.196;13.870;2022-07-10T05:40:29;4.72;;;0.65;;
69150;SDS011;56257;52.196;13.870;2022-07-10T05:42:56;6.40;;;0.93;;
69150;SDS011;56257;52.196;13.870;2022-07-10T05:45:22;5.18;;;0.60;;
69150;SDS011;56257;52.196;13.870;2022-07-10T05:47:49;5.07;;;0.65;;
69150;SDS011;56257;52.196;13.870;2022-07-10T05:50:16;3.00;;;0.63;;
69150;SDS011;56257;52.196;13.870;2022-07-10T05:52:42;4.10;;;0.75;;
69150;SDS011;56257;52.196;13.870;2022-07-10T05:55:09;6.05;;;0.80;;
69150;SDS011;56257;52.196;13.870;2022-07-10T05:57:36;3.95;;;0.93;;
69150;SDS011;56257;52.196;13.870;2022-07-10T06:00:06;2.83;;;0.70;;
69150;SDS011;56257;52.196;13.870;2022-07-10T06:02:33;5.73;;;0.50;;
69150;SDS011;56257;52.196;13.870;2022-07-10T06:05:00;4.38;;;0.55;;
69150;SDS011;56257;52.196;13.870;2022-07-10T06:07:27;4.07;;;0.70;;
69150;SDS011;56257;52.196;13.870;2022-07-10T06:09:53;4.03;;;0.50;;
69150;SDS011;56257;52.196;13.870;2022-07-10T06:12:20;4.47;;;0.68;;
69150;SDS011;56257;52.196;13.870;2022-07-10T06:14:47;3.90;;;0.50;;
69150;SDS011;56257;52.196;13.870;2022-07-10T06:17:14;3.50;;;0.70;;
69150;SDS011;56257;52.196;13.870;2022-07-10T06:19:40;2.83;;;0.52;;
69150;SDS011;56257;52.196;13.870;2022-07-10T06:22:07;4.57;;;0.70;;
69150;SDS011;56257;52.196;13.870;2022-07-10T06:24:52;4.32;;;0.70;;
69150;SDS011;56257;52.196;13.870;2022-07-10T06:27:19;5.93;;;0.70;;
69150;SDS011;56257;52.196;13.870;2022-07-10T06:29:46;4.32;;;0.65;;
69150;SDS011;56257;52.196;13.870;2022-07-10T06:32:12;5.22;;;0.73;;
69150;SDS011;56257;52.196;13.870;2022-07-10T06:34:39;5.00;;;0.80;;
69150;SDS011;56257;52.196;13.870;2022-07-10T06:37:06;3.65;;;0.82;;
69150;SDS011;56257;52.196;13.870;2022-07-10T06:39:33;5.00;;;1.00;;
69150;SDS011;56257;52.196;13.870;2022-07-10T06:42:03;7.20;;;0.85;;
69150;SDS011;56257;52.196;13.870;2022-07-10T06:44:30;4.30;;;0.80;;
69150;SDS011;56257;52.196;13.870;2022-07-10T06:46:57;4.75;;;0.82;;
69150;SDS011;56257;52.196;13.870;2022-07-10T06:49:43;2.90;;;0.80;;
69150;SDS011;56257;52.196;13.870;2022-07-10T06:52:11;4.37;;;0.60;;
69150;SDS011;56257;52.196;13.870;2022-07-10T06:54:38;3.00;;;0.70;;
69150;SDS011;56257;52.196;13.870;2022-07-10T06:57:05;3.88;;;1.00;;
69150;SDS011;56257;52.196;13.870;2022-07-10T06:59:31;3.85;;;0.80;;
69150;SDS011;56257;52.196;13.870;2022-07-10T07:01:59;3.53;;;0.60;;
69150;SDS011;56257;52.196;13.870;2022-07-10T07:04:26;5.73;;;0.83;;
69150;SDS011;56257;52.196;13.870;2022-07-10T07:06:52;3.50;;;0.70;;
69150;SDS011;56257;52.196;13.870;2022-07-10T07:09:19;7.72;;;0.93;;
69150;SDS011;56257;52.196;13.870;2022-07-10T07:11:46;6.60;;;1.10;;
69150;SDS011;56257;52.196;13.870;2022-07-10T07:14:12;3.97;;;0.88;;
69150;SDS011;56257;52.196;13.870;2022-07-10T07:16:39;4.60;;;0.90;;
69150;SDS011;56257;52.196;13.870;2022-07-10T07:19:11;4.00;;;0.82;;
69150;SDS011;56257;52.196;13.870;2022-07-10T07:21:43;4.75;;;0.90;;
69150;SDS011;56257;52.196;13.870;2022-07-10T07:24:29;5.55;;;0.90;;
69150;SDS011;56257;52.196;13.870;2022-07-10T07:26:55;6.97;;;1.02;;
69150;SDS011;56257;52.196;13.870;2022-07-10T07:29:22;4.27;;;0.90;;
69150;SDS011;56257;52.196;13.870;2022-07-10T07:31:49;4.35;;;0.68;;
69150;SDS011;56257;52.196;13.870;2022-07-10T07:34:15;4.78;;;0.93;;
69150;SDS011;56257;52.196;13.870;2022-07-10T07:36:42;3.80;;;0.70;;
69150;SDS011;56257;52.196;13.870;2022-07-10T07:39:08;5.13;;;1.05;;
69150;SDS011;56257;52.196;13.870;2022-07-10T07:41:35;6.80;;;1.43;;
69150;SDS011;56257;52.196;13.870;2022-07-10T07:44:02;6.45;;;1.00;;
69150;SDS011;56257;52.196;13.870;2022-07-10T07:46:29;5.00;;;1.00;;
69150;SDS011;56257;52.196;13.870;2022-07-10T07:48:55;4.80;;;0.75;;
69150;SDS011;56257;52.196;13.870;2022-07-10T07:51:23;6.28;;;0.82;;
69150;SDS011;56257;52.196;13.870;2022-07-10T07:53:50;6.17;;;1.07;;
69150;SDS011;56257;52.196;13.870;2022-07-10T07:56:16;7.50;;;1.08;;
69150;SDS011;56257;52.196;13.870;2022-07-10T07:58:43;4.82;;;0.90;;
69150;SDS011;56257;52.196;13.870;2022-07-10T08:01:10;5.75;;;1.00;;
69150;SDS011;56257;52.196;13.870;2022-07-10T08:03:36;5.72;;;0.85;;
69150;SDS011;56257;52.196;13.870;2022-07-10T08:06:23;6.90;;;0.90;;
69150;SDS011;56257;52.196;13.870;2022-07-10T08:08:50;5.93;;;0.85;;
69150;SDS011;56257;52.196;13.870;2022-07-10T08:11:17;3.53;;;1.08;;
69150;SDS011;56257;52.196;13.870;2022-07-10T08:13:43;4.75;;;0.90;;
69150;SDS011;56257;52.196;13.870;2022-07-10T08:16:10;6.70;;;1.52;;
69150;SDS011;56257;52.196;13.870;2022-07-10T08:18:37;4.73;;;1.00;;
69150;SDS011;56257;52.196;13.870;2022-07-10T08:21:04;4.75;;;0.90;;
69150;SDS011;56257;52.196;13.870;2022-07-10T08:23:31;5.43;;;1.17;;
69150;SDS011;56257;52.196;13.870;2022-07-10T08:25:58;7.05;;;1.02;;
69150;SDS011;56257;52.196;13.870;2022-07-10T08:28:25;10.25;;;1.08;;
69150;SDS011;56257;52.196;13.870;2022-07-10T08:30:52;4.73;;;0.93;;
69150;SDS011;56257;52.196;13.870;2022-07-10T08:33:19;3.45;;;0.65;;
69150;SDS011;56257;52.196;13.870;2022-07-10T08:35:46;5.60;;;1.00;;
69150;SDS011;56257;52.196;13.870;2022-07-10T08:38:13;4.10;;;0.90;;
69150;SDS011;56257;52.196;13.870;2022-07-10T08:40:39;3.97;;;1.00;;
69150;SDS011;56257;52.196;13.870;2022-07-10T08:43:06;6.67;;;0.90;;
69150;SDS011;56257;52.196;13.870;2022-07-10T08:45:33;5.40;;;0.90;;
69150;SDS011;56257;52.196;13.870;2022-07-10T08:48:01;4.03;;;1.13;;
69150;SDS011;56257;52.196;13.870;2022-07-10T08:50:29;5.40;;;1.13;;
69150;SDS011;56257;52.196;13.870;2022-07-10T08:53:13;4.72;;;0.70;;
69150;SDS011;56257;52.196;13.870;2022-07-10T08:55:43;4.80;;;0.70;;
69150;SDS011;56257;52.196;13.870;2022-07-10T08:58:10;4.05;;;0.82;;
69150;SDS011;56257;52.196;13.870;2022-07-10T09:00:38;4.68;;;0.70;;
69150;SDS011;56257;52.196;13.870;2022-07-10T09:03:05;5.10;;;0.85;;
69150;SDS011;56257;52.196;13.870;2022-07-10T09:05:34;4.40;;;0.75;;
69150;SDS011;56257;52.196;13.870;2022-07-10T09:08:01;3.70;;;0.60;;
69150;SDS011;56257;52.196;13.870;2022-07-10T09:10:29;4.88;;;0.80;;
69150;SDS011;56257;52.196;13.870;2022-07-10T09:15:24;3.97;;;0.77;;
69150;SDS011;56257;52.196;13.870;2022-07-10T09:17:56;5.93;;;1.77;;
69150;SDS011;56257;52.196;13.870;2022-07-10T09:20:25;4.80;;;0.70;;
69150;SDS011;56257;52.196;13.870;2022-07-10T09:22:52;4.38;;;0.65;;
69150;SDS011;56257;52.196;13.870;2022-07-10T09:25:18;6.97;;;1.00;;
69150;SDS011;56257;52.196;13.870;2022-07-10T09:27:51;4.03;;;0.90;;
69150;SDS011;56257;52.196;13.870;2022-07-10T09:30:30;4.82;;;1.10;;
69150;SDS011;56257;52.196;13.870;2022-07-10T09:33:20;6.27;;;1.10;;
69150;SDS011;56257;52.196;13.870;2022-07-10T09:36:03;6.50;;;1.70;;
69150;SDS011;56257;52.196;13.870;2022-07-10T09:41:13;4.07;;;0.77;;
69150;SDS011;56257;52.196;13.870;2022-07-10T09:44:02;5.70;;;0.90;;
69150;SDS011;56257;52.196;13.870;2022-07-10T09:46:31;7.07;;;1.00;;
69150;SDS011;56257;52.196;13.870;2022-07-10T09:49:03;4.40;;;1.02;;
69150;SDS011;56257;52.196;13.870;2022-07-10T09:51:43;4.55;;;0.80;;
69150;SDS011;56257;52.196;13.870;2022-07-10T09:54:15;9.18;;;1.17;;
69150;SDS011;56257;52.196;13.870;2022-07-10T09:56:49;6.38;;;1.27;;
69150;SDS011;56257;52.196;13.870;2022-07-10T09:59:20;7.33;;;0.80;;
69150;SDS011;56257;52.196;13.870;2022-07-10T10:01:47;5.05;;;0.90;;
69150;SDS011;56257;52.196;13.870;2022-07-10T10:04:18;4.35;;;0.73;;
69150;SDS011;56257;52.196;13.870;2022-07-10T10:06:52;6.88;;;1.25;;
69150;SDS011;56257;52.196;13.870;2022-07-10T10:09:26;5.15;;;0.70;;
69150;SDS011;56257;52.196;13.870;2022-07-10T10:11:57;4.17;;;0.87;;
69150;SDS011;56257;52.196;13.870;2022-07-10T10:14:27;5.80;;;0.80;;
69150;SDS011;56257;52.196;13.870;2022-07-10T10:16:54;5.93;;;1.25;;
69150;SDS011;56257;52.196;13.870;2022-07-10T10:19:25;8.00;;;1.00;;
69150;SDS011;56257;52.196;13.870;2022-07-10T10:22:14;5.53;;;0.80;;
69150;SDS011;56257;52.196;13.870;2022-07-10T10:24:42;2.60;;;0.50;;
69150;SDS011;56257;52.196;13.870;2022-07-10T10:27:09;6.82;;;1.13;;
69150;SDS011;56257;52.196;13.870;2022-07-10T10:29:37;6.78;;;1.20;;
69150;SDS011;56257;52.196;13.870;2022-07-10T10:32:04;7.63;;;1.15;;
69150;SDS011;56257;52.196;13.870;2022-07-10T10:34:44;6.50;;;0.88;;
69150;SDS011;56257;52.196;13.870;2022-07-10T10:37:28;7.57;;;1.27;;
69150;SDS011;56257;52.196;13.870;2022-07-10T10:40:08;5.68;;;1.10;;
69150;SDS011;56257;52.196;13.870;2022-07-10T10:42:39;4.50;;;0.90;;
69150;SDS011;56257;52.196;13.870;2022-07-10T10:48:00;6.30;;;1.35;;
69150;SDS011;56257;52.196;13.870;2022-07-10T10:50:56;6.80;;;0.73;;
69150;SDS011;56257;52.196;13.870;2022-07-10T10:53:24;6.22;;;0.90;;
69150;SDS011;56257;52.196;13.870;2022-07-10T10:58:27;5.93;;;0.80;;
69150;SDS011;56257;52.196;13.870;2022-07-10T11:01:04;4.78;;;0.95;;
69150;SDS011;56257;52.196;13.870;2022-07-10T11:03:32;4.47;;;0.80;;
69150;SDS011;56257;52.196;13.870;2022-07-10T11:05:58;6.80;;;0.90;;
69150;SDS011;56257;52.196;13.870;2022-07-10T11:08:35;5.50;;;0.90;;
69150;SDS011;56257;52.196;13.870;2022-07-10T11:13:58;4.10;;;0.90;;
69150;SDS011;56257;52.196;13.870;2022-07-10T11:16:25;4.13;;;0.83;;
69150;SDS011;56257;52.196;13.870;2022-07-10T11:18:52;4.10;;;0.75;;
69150;SDS011;56257;52.196;13.870;2022-07-10T11:21:26;6.25;;;1.33;;
69150;SDS011;56257;52.196;13.870;2022-07-10T11:23:56;6.45;;;0.80;;
69150;SDS011;56257;52.196;13.870;2022-07-10T11:29:03;6.00;;;1.00;;
69150;SDS011;56257;52.196;13.870;2022-07-10T11:31:33;7.13;;;1.10;;
69150;SDS011;56257;52.196;13.870;2022-07-10T11:34:11;4.90;;;0.77;;
69150;SDS011;56257;52.196;13.870;2022-07-10T11:36:38;12.48;;;1.13;;
69150;SDS011;56257;52.196;13.870;2022-07-10T11:39:06;7.03;;;1.45;;
69150;SDS011;56257;52.196;13.870;2022-07-10T11:41:41;4.37;;;0.90;;
69150;SDS011;56257;52.196;13.870;2022-07-10T11:44:12;7.00;;;1.00;;
69150;SDS011;56257;52.196;13.870;2022-07-10T11:46:40;5.45;;;1.10;;
69150;SDS011;56257;52.196;13.870;2022-07-10T11:49:10;7.85;;;1.27;;
69150;SDS011;56257;52.196;13.870;2022-07-10T11:51:38;5.13;;;0.90;;
69150;SDS011;56257;52.196;13.870;2022-07-10T11:54:17;4.43;;;0.80;;
69150;SDS011;56257;52.196;13.870;2022-07-10T11:56:51;5.13;;;0.90;;
69150;SDS011;56257;52.196;13.870;2022-07-10T11:59:25;7.15;;;1.20;;
69150;SDS011;56257;52.196;13.870;2022-07-10T12:01:53;5.88;;;0.95;;
69150;SDS011;56257;52.196;13.870;2022-07-10T12:04:22;7.38;;;1.77;;
69150;SDS011;56257;52.196;13.870;2022-07-10T12:06:51;4.50;;;0.90;;
69150;SDS011;56257;52.196;13.870;2022-07-10T12:09:20;7.40;;;1.30;;
69150;SDS011;56257;52.196;13.870;2022-07-10T12:12:04;5.63;;;0.90;;
69150;SDS011;56257;52.196;13.870;2022-07-10T12:14:33;5.30;;;0.88;;
69150;SDS011;56257;52.196;13.870;2022-07-10T12:17:01;4.72;;;0.90;;
69150;SDS011;56257;52.196;13.870;2022-07-10T12:19:31;4.67;;;0.93;;
69150;SDS011;56257;52.196;13.870;2022-07-10T12:22:04;7.53;;;1.10;;
69150;SDS011;56257;52.196;13.870;2022-07-10T12:24:31;6.10;;;0.82;;
69150;SDS011;56257;52.196;13.870;2022-07-10T12:26:58;5.45;;;0.85;;
69150;SDS011;56257;52.196;13.870;2022-07-10T12:29:25;5.40;;;1.02;;
69150;SDS011;56257;52.196;13.870;2022-07-10T12:31:57;5.47;;;0.90;;
69150;SDS011;56257;52.196;13.870;2022-07-10T12:34:35;6.43;;;1.00;;
69150;SDS011;56257;52.196;13.870;2022-07-10T12:37:07;5.63;;;1.10;;
69150;SDS011;56257;52.196;13.870;2022-07-10T12:39:37;7.20;;;1.17;;
69150;SDS011;56257;52.196;13.870;2022-07-10T12:42:12;6.40;;;0.90;;
69150;SDS011;56257;52.196;13.870;2022-07-10T12:44:41;6.70;;;0.80;;
69150;SDS011;56257;52.196;13.870;2022-07-10T12:47:11;7.78;;;0.80;;
69150;SDS011;56257;52.196;13.870;2022-07-10T12:49:54;4.88;;;0.88;;
69150;SDS011;56257;52.196;13.870;2022-07-10T12:52:32;8.35;;;1.15;;
69150;SDS011;56257;52.196;13.870;2022-07-10T13:00:17;4.57;;;0.80;;
69150;SDS011;56257;52.196;13.870;2022-07-10T13:02:48;6.85;;;0.98;;
69150;SDS011;56257;52.196;13.870;2022-07-10T13:08:09;5.75;;;1.25;;
69150;SDS011;56257;52.196;13.870;2022-07-10T13:10:39;6.10;;;1.00;;
69150;SDS011;56257;52.196;13.870;2022-07-10T13:13:07;4.15;;;1.00;;
69150;SDS011;56257;52.196;13.870;2022-07-10T13:15:34;4.97;;;0.82;;
69150;SDS011;56257;52.196;13.870;2022-07-10T13:18:07;6.45;;;1.00;;
69150;SDS011;56257;52.196;13.870;2022-07-10T13:20:34;6.68;;;1.17;;
69150;SDS011;56257;52.196;13.870;2022-07-10T13:23:01;7.50;;;1.03;;
69150;SDS011;56257;52.196;13.870;2022-07-10T13:25:28;5.60;;;1.02;;
69150;SDS011;56257;52.196;13.870;2022-07-10T13:27:55;5.30;;;1.08;;
69150;SDS011;56257;52.196;13.870;2022-07-10T13:30:22;5.95;;;1.00;;
69150;SDS011;56257;52.196;13.870;2022-07-10T13:32:49;6.78;;;1.05;;
69150;SDS011;56257;52.196;13.870;2022-07-10T13:35:15;5.37;;;0.90;;
69150;SDS011;56257;52.196;13.870;2022-07-10T13:37:42;4.45;;;0.75;;
69150;SDS011;56257;52.196;13.870;2022-07-10T13:40:09;5.43;;;1.42;;
69150;SDS011;56257;52.196;13.870;2022-07-10T13:42:36;4.65;;;1.00;;
69150;SDS011;56257;52.196;13.870;2022-07-10T13:45:02;4.93;;;1.00;;
69150;SDS011;56257;52.196;13.870;2022-07-10T13:47:29;5.53;;;0.87;;
69150;SDS011;56257;52.196;13.870;2022-07-10T13:49:56;5.38;;;0.88;;
69150;SDS011;56257;52.196;13.870;2022-07-10T13:52:23;5.90;;;0.90;;
69150;SDS011;56257;52.196;13.870;2022-07-10T13:54:49;6.13;;;0.82;;
69150;SDS011;56257;52.196;13.870;2022-07-10T13:57:16;5.03;;;0.82;;
69150;SDS011;56257;52.196;13.870;2022-07-10T13:59:43;6.33;;;1.23;;
69150;SDS011;56257;52.196;13.870;2022-07-10T14:02:09;5.07;;;0.88;;
69150;SDS011;56257;52.196;13.870;2022-07-10T14:04:41;6.03;;;1.13;;
69150;SDS011;56257;52.196;13.870;2022-07-10T14:07:08;7.30;;;1.08;;
69150;SDS011;56257;52.196;13.870;2022-07-10T14:09:35;5.32;;;0.80;;
69150;SDS011;56257;52.196;13.870;2022-07-10T14:12:02;4.97;;;0.90;;
69150;SDS011;56257;52.196;13.870;2022-07-10T14:14:28;7.22;;;0.95;;
69150;SDS011;56257;52.196;13.870;2022-07-10T14:16:56;5.50;;;0.93;;
69150;SDS011;56257;52.196;13.870;2022-07-10T14:19:22;4.47;;;0.80;;
69150;SDS011;56257;52.196;13.870;2022-07-10T14:21:49;4.65;;;1.08;;
69150;SDS011;56257;52.196;13.870;2022-07-10T14:24:15;3.83;;;0.90;;
69150;SDS011;56257;52.196;13.870;2022-07-10T14:26:42;5.47;;;0.93;;
69150;SDS011;56257;52.196;13.870;2022-07-10T14:29:09;4.22;;;1.08;;
69150;SDS011;56257;52.196;13.870;2022-07-10T14:31:35;7.35;;;0.95;;
69150;SDS011;56257;52.196;13.870;2022-07-10T14:34:02;6.18;;;1.00;;
69150;SDS011;56257;52.196;13.870;2022-07-10T14:36:31;5.67;;;1.10;;
69150;SDS011;56257;52.196;13.870;2022-07-10T14:38:58;5.63;;;1.40;;
69150;SDS011;56257;52.196;13.870;2022-07-10T14:41:24;6.53;;;1.17;;
69150;SDS011;56257;52.196;13.870;2022-07-10T14:43:51;5.78;;;0.90;;
69150;SDS011;56257;52.196;13.870;2022-07-10T14:46:18;5.57;;;1.00;;
69150;SDS011;56257;52.196;13.870;2022-07-10T14:48:45;7.00;;;1.20;;
69150;SDS011;56257;52.196;13.870;2022-07-10T14:51:11;4.13;;;0.73;;
69150;SDS011;56257;52.196;13.870;2022-07-10T14:53:38;5.95;;;1.13;;
69150;SDS011;56257;52.196;13.870;2022-07-10T14:56:08;5.00;;;0.80;;
69150;SDS011;56257;52.196;13.870;2022-07-10T14:58:35;4.28;;;0.70;;
69150;SDS011;56257;52.196;13.870;2022-07-10T15:01:22;9.90;;;0.97;;
69150;SDS011;56257;52.196;13.870;2022-07-10T15:03:48;5.03;;;0.80;;
69150;SDS011;56257;52.196;13.870;2022-07-10T15:06:15;4.60;;;0.77;;